首页
METAR-TAF:

METAR-TAF

机场 :

Sanford, 北卡罗来纳州, 美国

Sanford-Lee County Regional Airport

纬度: 35-34-57N, 经度: 079-06-05W, 海拔: 75米

当前天气观测

该预报发布于11分钟前的14:15 UTC
风速5节,风向,有时为14节阵风
温度 16°C
湿度 94%
气压 1015 hPa
能見度: 16.1公里
散云层高于100英尺
多云层高于1300英尺
阴天层高于3300英尺
小雨

METAR: KTTA 241415Z AUTO 09005G14KT 10SM -RA SCT001 BKN013 OVC033 16/15 A2997 RMK AO2 T01550147

时间: 10:26 (14:26 UTC)


TAF: 丢失

超过4000个机场的气象观测和天气预报(METAR&TAF报告)。

可查询的气象台以黄色和红色小点在地图上表示。

将鼠标移到小点上方,可查看气象台名称。

然后点击查看天气观测和预报。

如需切换地图:点击带黑十字的绿色按钮放大地图;点击带横线的绿色按钮缩小地图;或者点击绿色箭头查看邻近地区的地图。


METAR-TAF: